This is the latest recevied weather packets stored in our database for station/object LRBC. If no packets are shown the sender has not sent any weather packets the latest 10 day(s).
| Time | Temp. | Humidity | Pressure | Rain* | Wind** | Luminosity | Snow |
|---|---|---|---|---|---|---|---|
| 1788518975 | 27.22° C | 37% | 1016 hPa | - | - | - | - |
| 1788518098 | 27.22° C | 37% | 1016 hPa | - | - | - | - |
| 1788517134 | 26.11° C | 39% | 1016 hPa | - | - | - | - |
| 1788514428 | 27.22° C | 42% | 1017 hPa | - | - | - | - |
| 1788513527 | 25° C | 47% | 1017 hPa | - | - | - | - |
| 1788510828 | 23.89° C | 50% | 1017 hPa | - | - | - | - |
| 1788509931 | 22.78° C | 57% | 1017 hPa | - | - | - | - |
| 1788509029 | 22.78° C | 57% | 1017 hPa | - | - | - | - |
| 1788508208 | 22.22° C | 61% | 1017 hPa | - | - | - | - |
| 1788507229 | 22.22° C | 61% | 1017 hPa | - | - | - | - |
| 1788506327 | 21.11° C | 69% | 1017 hPa | - | - | - | - |
| 1788505428 | 21.11° C | 69% | 1017 hPa | - | - | - | - |
| 1788504528 | 18.89° C | 78% | 1017 hPa | - | - | - | - |
| 1788503628 | 18.89° C | 78% | 1017 hPa | - | - | - | - |
| 1788502729 | 17.78° C | 78% | 1017 hPa | - | - | - | - |
| 1788501828 | 17.78° C | 78% | 1017 hPa | - | - | - | - |
| 1788500928 | 16.11° C | 94% | 1017 hPa | - | - | - | - |
| 1788500029 | 16.11° C | 94% | 1017 hPa | - | - | - | - |
| 1788499128 | 16.11° C | 88% | 1017 hPa | - | - | - | - |
| 1788498228 | 16.11° C | 88% | 1017 hPa | - | - | - | - |
| 1788497328 | 15° C | 94% | 1017 hPa | - | - | - | - |
| 1788496428 | 15° C | 94% | 1017 hPa | - | - | - | - |
| 1788495525 | 15° C | 94% | 1017 hPa | - | - | - | - |
| 1788494628 | 15° C | 94% | 1017 hPa | - | - | - | - |
| 1788493724 | 13.89° C | 100% | 1017 hPa | - | - | - | - |
* Rain since midnight (hover to see other rain measurements)
** Current wind speed in m/s (hover to see current wind gust speed)